Time,TemperatureF,DewpointF,PressureIn,WindDirection,WindDirectionDegrees,WindSpeedMPH,WindSpeedGustMPH,Humidity,HourlyPrecipIn,Conditions,Clouds,dailyrainin,SoftwareType,DateUTC
2013-04-27 00:00:00,48.8,46.9,30.24,NNW,346,0.0,8.0,93,0.00,,,0.00,LWC V1.00 B64,2013-04-27 07:00:00,
2013-04-27 00:05:00,48.8,46.9,30.24,North,355,3.0,5.0,93,0.00,,,0.00,LWC V1.00 B64,2013-04-27 07:05:00,
2013-04-27 00:10:00,48.9,47.0,30.24,North,5,2.0,6.0,93,0.00,,,0.00,LWC V1.00 B64,2013-04-27 07:10:00,
2013-04-27 00:15:00,48.8,46.9,30.24,North,5,1.0,3.0,93,0.00,,,0.00,LWC V1.00 B64,2013-04-27 07:15:00,
2013-04-27 00:20:00,48.7,46.8,30.24,NNW,338,9.0,9.0,93,0.00,,,0.00,LWC V1.00 B64,2013-04-27 07:20:00,
2013-04-27 00:25:00,48.7,46.8,30.24,North,0,0.0,3.0,93,0.00,,,0.00,LWC V1.00 B64,2013-04-27 07:25:00,
2013-04-27 00:30:00,48.7,46.8,30.24,North,0,0.0,0.0,93,0.00,,,0.00,LWC V1.00 B64,2013-04-27 07:30:00,
2013-04-27 00:35:00,48.8,46.9,30.25,North,0,1.0,3.0,93,0.00,,,0.00,LWC V1.00 B64,2013-04-27 07:35:00,
2013-04-27 00:40:00,48.8,46.9,30.25,North,0,0.0,0.0,93,0.00,,,0.00,LWC V1.00 B64,2013-04-27 07:40:00,
2013-04-27 00:45:00,48.8,46.9,30.25,North,0,0.0,1.0,93,0.00,,,0.00,LWC V1.00 B64,2013-04-27 07:45:00,
2013-04-27 00:50:00,48.8,46.9,30.25,North,0,0.0,0.0,93,0.00,,,0.00,LWC V1.00 B64,2013-04-27 07:50:00,
2013-04-27 00:55:00,48.8,46.9,30.24,North,0,0.0,0.0,93,0.00,,,0.00,LWC V1.00 B64,2013-04-27 07:55:00,
2013-04-27 01:00:00,48.7,46.8,30.24,NW,325,0.0,1.0,93,0.00,,,0.00,LWC V1.00 B64,2013-04-27 08:00:00,
2013-04-27 01:05:00,48.7,46.8,30.24,NNW,344,4.0,5.0,93,0.00,,,0.00,LWC V1.00 B64,2013-04-27 08:05:00,
2013-04-27 01:10:00,48.8,46.9,30.24,NNW,348,0.0,3.0,93,0.00,,,0.00,LWC V1.00 B64,2013-04-27 08:10:00,
2013-04-27 01:15:00,48.8,46.9,30.24,NNW,345,1.0,7.0,93,0.00,,,0.00,LWC V1.00 B64,2013-04-27 08:15:00,
2013-04-27 01:20:00,48.8,46.9,30.24,North,0,5.0,9.0,93,0.00,,,0.00,LWC V1.00 B64,2013-04-27 08:20:00,
2013-04-27 01:25:00,48.8,46.9,30.24,North,355,2.0,2.0,93,0.00,,,0.00,LWC V1.00 B64,2013-04-27 08:25:00,
2013-04-27 01:30:00,48.7,46.8,30.24,North,355,4.0,5.0,93,0.00,,,0.00,LWC V1.00 B64,2013-04-27 08:30:00,
2013-04-27 01:35:00,48.6,46.7,30.24,North,355,3.0,6.0,93,0.00,,,0.00,LWC V1.00 B64,2013-04-27 08:35:00,
2013-04-27 01:40:00,48.7,46.8,30.24,North,355,3.0,5.0,93,0.00,,,0.00,LWC V1.00 B64,2013-04-27 08:40:00,
2013-04-27 01:45:00,48.7,46.8,30.23,North,9,3.0,6.0,93,0.00,,,0.00,LWC V1.00 B64,2013-04-27 08:45:00,
2013-04-27 01:50:00,48.8,46.9,30.23,North,9,0.0,2.0,93,0.00,,,0.00,LWC V1.00 B64,2013-04-27 08:50:00,
2013-04-27 01:55:00,48.8,46.9,30.23,North,0,0.0,2.0,93,0.00,,,0.00,LWC V1.00 B64,2013-04-27 08:55:00,
2013-04-27 02:00:00,48.7,46.8,30.23,North,355,3.0,5.0,93,0.00,,,0.00,LWC V1.00 B64,2013-04-27 09:00:00,
2013-04-27 02:05:00,48.7,46.8,30.23,North,355,0.0,1.0,93,0.00,,,0.00,LWC V1.00 B64,2013-04-27 09:05:00,
2013-04-27 02:10:00,48.7,46.8,30.23,North,355,0.0,0.0,93,0.00,,,0.00,LWC V1.00 B64,2013-04-27 09:10:00,
2013-04-27 02:15:00,48.7,46.8,30.22,North,355,0.0,4.0,93,0.00,,,0.00,LWC V1.00 B64,2013-04-27 09:15:00,
2013-04-27 02:20:00,48.6,46.7,30.22,NNW,336,1.0,5.0,93,0.00,,,0.00,LWC V1.00 B64,2013-04-27 09:20:00,
2013-04-27 02:25:00,48.5,46.6,30.22,North,355,0.0,0.0,93,0.00,,,0.00,LWC V1.00 B64,2013-04-27 09:25:00,
2013-04-27 02:30:00,48.5,46.6,30.22,NNW,339,1.0,6.0,93,0.00,,,0.00,LWC V1.00 B64,2013-04-27 09:30:00,
2013-04-27 02:35:00,48.4,46.5,30.22,North,0,0.0,6.0,93,0.00,,,0.00,LWC V1.00 B64,2013-04-27 09:35:00,
2013-04-27 02:40:00,48.4,46.8,30.22,NNW,344,1.0,1.0,94,0.00,,,0.00,LWC V1.00 B64,2013-04-27 09:40:00,
2013-04-27 02:45:00,48.4,46.8,30.22,North,355,1.0,2.0,94,0.00,,,0.00,LWC V1.00 B64,2013-04-27 09:45:00,
2013-04-27 02:50:00,48.4,46.8,30.22,North,0,4.0,4.0,94,0.00,,,0.00,LWC V1.00 B64,2013-04-27 09:50:00,
2013-04-27 02:55:00,48.5,46.9,30.22,NNW,346,0.0,3.0,94,0.00,,,0.00,LWC V1.00 B64,2013-04-27 09:55:00,
2013-04-27 03:00:00,48.5,46.9,30.22,NNW,348,0.0,1.0,94,0.00,,,0.00,LWC V1.00 B64,2013-04-27 10:00:00,
2013-04-27 03:05:00,48.5,46.9,30.22,NNW,348,3.0,3.0,94,0.00,,,0.00,LWC V1.00 B64,2013-04-27 10:05:00,
2013-04-27 03:10:00,48.4,46.8,30.22,North,350,3.0,7.0,94,0.00,,,0.00,LWC V1.00 B64,2013-04-27 10:10:00,
2013-04-27 03:15:00,48.3,46.7,30.22,North,355,0.0,5.0,94,0.00,,,0.00,LWC V1.00 B64,2013-04-27 10:15:00,
2013-04-27 03:20:00,48.3,46.7,30.22,North,351,0.0,3.0,94,0.00,,,0.00,LWC V1.00 B64,2013-04-27 10:20:00,
2013-04-27 03:25:00,48.4,46.8,30.22,North,349,0.0,3.0,94,0.00,,,0.00,LWC V1.00 B64,2013-04-27 10:25:00,
2013-04-27 03:30:00,48.3,46.7,30.23,North,350,0.0,1.0,94,0.00,,,0.00,LWC V1.00 B64,2013-04-27 10:30:00,
2013-04-27 03:35:00,48.3,46.7,30.22,NW,311,0.0,1.0,94,0.00,,,0.00,LWC V1.00 B64,2013-04-27 10:35:00,
2013-04-27 03:40:00,48.3,46.7,30.22,NW,317,0.0,1.0,94,0.00,,,0.00,LWC V1.00 B64,2013-04-27 10:40:00,
2013-04-27 03:45:00,48.3,46.7,30.22,NW,319,0.0,4.0,94,0.00,,,0.00,LWC V1.00 B64,2013-04-27 10:45:00,
2013-04-27 03:50:00,48.2,46.6,30.22,NNW,335,0.0,1.0,94,0.00,,,0.00,LWC V1.00 B64,2013-04-27 10:50:00,
2013-04-27 03:55:00,48.2,46.6,30.22,NNW,335,0.0,3.0,94,0.00,,,0.00,LWC V1.00 B64,2013-04-27 10:55:00,
2013-04-27 04:00:00,48.3,46.7,30.22,NNW,334,0.0,1.0,94,0.00,,,0.00,LWC V1.00 B64,2013-04-27 11:00:00,
2013-04-27 04:05:00,48.3,46.7,30.23,NNW,334,0.0,5.0,94,0.00,,,0.00,LWC V1.00 B64,2013-04-27 11:05:00,
2013-04-27 04:10:00,48.2,46.6,30.22,North,5,3.0,6.0,94,0.00,,,0.00,LWC V1.00 B64,2013-04-27 11:10:00,
2013-04-27 04:15:00,48.2,46.6,30.22,North,355,1.0,6.0,94,0.00,,,0.00,LWC V1.00 B64,2013-04-27 11:15:00,
2013-04-27 04:20:00,48.1,46.5,30.22,North,355,0.0,5.0,94,0.00,,,0.00,LWC V1.00 B64,2013-04-27 11:20:00,
2013-04-27 04:25:00,48.1,46.5,30.22,NNW,344,0.0,6.0,94,0.00,,,0.00,LWC V1.00 B64,2013-04-27 11:25:00,
2013-04-27 04:30:00,48.1,46.5,30.22,NNW,344,5.0,5.0,94,0.00,,,0.00,LWC V1.00 B64,2013-04-27 11:30:00,
2013-04-27 04:35:00,48.0,46.4,30.22,North,355,5.0,10.0,94,0.00,,,0.00,LWC V1.00 B64,2013-04-27 11:35:00,
2013-04-27 04:40:00,48.0,46.4,30.22,North,355,0.0,0.0,94,0.00,,,0.00,LWC V1.00 B64,2013-04-27 11:40:00,
2013-04-27 04:45:00,48.0,46.4,30.22,North,355,0.0,0.0,94,0.00,,,0.00,LWC V1.00 B64,2013-04-27 11:45:00,
2013-04-27 04:50:00,48.1,46.7,30.21,North,355,0.0,0.0,95,0.00,,,0.00,LWC V1.00 B64,2013-04-27 11:50:00,
2013-04-27 04:55:00,48.2,46.6,30.21,North,355,2.0,4.0,94,0.00,,,0.00,LWC V1.00 B64,2013-04-27 11:55:00,
2013-04-27 05:00:00,48.1,46.5,30.22,NNW,342,1.0,6.0,94,0.00,,,0.00,LWC V1.00 B64,2013-04-27 12:00:00,
2013-04-27 05:05:00,48.1,46.7,30.22,North,355,4.0,6.0,95,0.00,,,0.00,LWC V1.00 B64,2013-04-27 12:05:00,
2013-04-27 05:10:00,48.0,46.6,30.22,NNW,339,2.0,4.0,95,0.00,,,0.00,LWC V1.00 B64,2013-04-27 12:10:00,
2013-04-27 05:15:00,48.0,46.6,30.22,NNW,342,0.0,0.0,95,0.00,,,0.00,LWC V1.00 B64,2013-04-27 12:15:00,
2013-04-27 05:20:00,48.0,46.6,30.22,NNW,346,5.0,9.0,95,0.00,,,0.00,LWC V1.00 B64,2013-04-27 12:20:00,
2013-04-27 05:25:00,47.8,46.4,30.22,North,5,2.0,4.0,95,0.00,,,0.00,LWC V1.00 B64,2013-04-27 12:25:00,
2013-04-27 05:30:00,47.7,46.3,30.22,North,355,4.0,4.0,95,0.00,,,0.00,LWC V1.00 B64,2013-04-27 12:30:00,
2013-04-27 05:35:00,47.7,46.3,30.21,North,355,3.0,6.0,95,0.00,,,0.00,LWC V1.00 B64,2013-04-27 12:35:00,
2013-04-27 05:40:00,47.5,46.1,30.22,North,355,0.0,0.0,95,0.00,,,0.00,LWC V1.00 B64,2013-04-27 12:40:00,
2013-04-27 05:45:00,47.6,46.2,30.21,North,355,3.0,3.0,95,0.00,,,0.00,LWC V1.00 B64,2013-04-27 12:45:00,
2013-04-27 05:50:00,47.5,46.1,30.22,North,355,4.0,7.0,95,0.00,,,0.00,LWC V1.00 B64,2013-04-27 12:50:00,
2013-04-27 05:55:00,47.5,46.1,30.22,North,0,0.0,5.0,95,0.00,,,0.00,LWC V1.00 B64,2013-04-27 12:55:00,
2013-04-27 06:00:00,47.6,46.2,30.22,North,5,4.0,5.0,95,0.00,,,0.00,LWC V1.00 B64,2013-04-27 13:00:00,
2013-04-27 06:05:00,47.6,46.2,30.22,North,0,0.0,3.0,95,0.00,,,0.00,LWC V1.00 B64,2013-04-27 13:05:00,
2013-04-27 06:10:00,47.6,46.2,30.22,SW,218,0.0,0.0,95,0.00,,,0.00,LWC V1.00 B64,2013-04-27 13:10:00,
2013-04-27 06:15:00,47.6,46.2,30.22,West,271,0.0,1.0,95,0.00,,,0.00,LWC V1.00 B64,2013-04-27 13:15:00,
2013-04-27 06:20:00,47.7,46.3,30.22,NW,319,3.0,5.0,95,0.00,,,0.00,LWC V1.00 B64,2013-04-27 13:20:00,
2013-04-27 06:25:00,47.7,46.3,30.22,NNW,327,3.0,4.0,95,0.00,,,0.00,LWC V1.00 B64,2013-04-27 13:25:00,
2013-04-27 06:30:00,47.6,46.2,30.22,NNW,333,1.0,5.0,95,0.00,,,0.00,LWC V1.00 B64,2013-04-27 13:30:00,
2013-04-27 06:35:00,47.5,46.1,30.22,NNW,333,0.0,3.0,95,0.00,,,0.00,LWC V1.00 B64,2013-04-27 13:35:00,
2013-04-27 06:40:00,47.5,46.1,30.22,NNW,333,0.0,0.0,95,0.00,,,0.00,LWC V1.00 B64,2013-04-27 13:40:00,
2013-04-27 06:49:00,47.4,46.0,30.22,NNW,333,0.0,2.0,95,0.00,,,0.00,LWC V1.00 B64,2013-04-27 13:49:00,
2013-04-27 06:54:00,47.5,46.1,30.22,NNW,333,0.0,0.0,95,0.00,,,0.00,LWC V1.00 B64,2013-04-27 13:54:00,
2013-04-27 06:59:00,47.6,46.2,30.22,NNW,333,0.0,1.0,95,0.00,,,0.00,LWC V1.00 B64,2013-04-27 13:59:00,
2013-04-27 07:04:00,47.6,46.2,30.23,NNW,333,0.0,0.0,95,0.00,,,0.00,LWC V1.00 B64,2013-04-27 14:04:00,
2013-04-27 07:09:00,47.6,46.2,30.23,NNW,333,0.0,2.0,95,0.00,,,0.00,LWC V1.00 B64,2013-04-27 14:09:00,
2013-04-27 07:14:00,47.7,46.3,30.23,NNW,333,2.0,2.0,95,0.00,,,0.00,LWC V1.00 B64,2013-04-27 14:14:00,
2013-04-27 07:19:00,47.7,46.3,30.23,NNW,337,2.0,4.0,95,0.00,,,0.00,LWC V1.00 B64,2013-04-27 14:19:00,
2013-04-27 07:24:00,47.6,46.2,30.23,NNW,337,0.0,1.0,95,0.00,,,0.00,LWC V1.00 B64,2013-04-27 14:24:00,
2013-04-27 07:29:00,47.7,46.3,30.23,NNW,337,0.0,0.0,95,0.00,,,0.00,LWC V1.00 B64,2013-04-27 14:29:00,
2013-04-27 07:34:00,47.9,46.5,30.23,NNW,337,0.0,0.0,95,0.00,,,0.00,LWC V1.00 B64,2013-04-27 14:34:00,
2013-04-27 07:39:00,48.1,46.7,30.24,NNW,337,0.0,0.0,95,0.00,,,0.00,LWC V1.00 B64,2013-04-27 14:39:00,
2013-04-27 07:44:00,48.1,46.7,30.24,NNW,337,0.0,0.0,95,0.00,,,0.00,LWC V1.00 B64,2013-04-27 14:44:00,
2013-04-27 07:49:00,48.3,46.9,30.23,NNW,337,0.0,0.0,95,0.00,,,0.00,LWC V1.00 B64,2013-04-27 14:49:00,
2013-04-27 07:54:00,48.3,46.9,30.24,NNW,337,0.0,0.0,95,0.00,,,0.00,LWC V1.00 B64,2013-04-27 14:54:00,
2013-04-27 07:59:00,48.3,46.9,30.24,NNW,337,0.0,2.0,95,0.00,,,0.00,LWC V1.00 B64,2013-04-27 14:59:00,
2013-04-27 08:04:00,48.3,46.9,30.24,NNW,337,0.0,0.0,95,0.00,,,0.00,LWC V1.00 B64,2013-04-27 15:04:00,
2013-04-27 08:09:00,48.5,47.1,30.24,NNW,336,0.0,2.0,95,0.00,,,0.00,LWC V1.00 B64,2013-04-27 15:09:00,
2013-04-27 08:14:00,48.5,47.1,30.24,NNW,336,0.0,0.0,95,0.00,,,0.00,LWC V1.00 B64,2013-04-27 15:14:00,
2013-04-27 08:19:00,48.5,47.1,30.25,NNW,336,0.0,1.0,95,0.00,,,0.00,LWC V1.00 B64,2013-04-27 15:19:00,
2013-04-27 08:24:00,48.9,47.5,30.24,NNW,336,0.0,1.0,95,0.00,,,0.00,LWC V1.00 B64,2013-04-27 15:24:00,
2013-04-27 08:29:00,49.3,47.9,30.24,NNW,329,2.0,2.0,95,0.00,,,0.00,LWC V1.00 B64,2013-04-27 15:29:00,
2013-04-27 08:34:00,49.5,48.1,30.24,NW,326,0.0,2.0,95,0.00,,,0.00,LWC V1.00 B64,2013-04-27 15:34:00,
2013-04-27 08:39:00,49.7,48.3,30.24,West,263,0.0,4.0,95,0.00,,,0.00,LWC V1.00 B64,2013-04-27 15:39:00,
2013-04-27 08:44:00,49.8,48.1,30.24,SW,234,0.0,2.0,94,0.00,,,0.00,LWC V1.00 B64,2013-04-27 15:44:00,
2013-04-27 08:49:00,50.1,48.7,30.25,SW,233,1.0,4.0,95,0.00,,,0.00,LWC V1.00 B64,2013-04-27 15:49:00,
2013-04-27 08:54:00,50.1,48.4,30.25,SW,229,0.0,3.0,94,0.00,,,0.00,LWC V1.00 B64,2013-04-27 15:54:00,
2013-04-27 08:59:00,50.3,48.6,30.24,SW,225,0.0,1.0,94,0.00,,,0.00,LWC V1.00 B64,2013-04-27 15:59:00,
2013-04-27 09:04:00,50.3,48.6,30.24,SW,225,1.0,1.0,94,0.00,,,0.00,LWC V1.00 B64,2013-04-27 16:04:00,
2013-04-27 09:09:00,50.5,48.8,30.25,SW,225,0.0,2.0,94,0.00,,,0.00,LWC V1.00 B64,2013-04-27 16:09:00,
2013-04-27 09:14:00,50.8,49.1,30.24,SW,225,0.0,0.0,94,0.00,,,0.00,LWC V1.00 B64,2013-04-27 16:14:00,
2013-04-27 09:19:00,51.2,49.5,30.24,SW,225,0.0,3.0,94,0.00,,,0.00,LWC V1.00 B64,2013-04-27 16:19:00,
2013-04-27 09:24:00,51.4,49.4,30.24,SW,225,0.0,1.0,93,0.00,,,0.00,LWC V1.00 B64,2013-04-27 16:24:00,
2013-04-27 09:29:00,51.7,49.7,30.24,SW,225,0.0,2.0,93,0.00,,,0.00,LWC V1.00 B64,2013-04-27 16:29:00,
2013-04-27 09:34:00,52.1,50.1,30.24,SW,225,0.0,0.0,93,0.00,,,0.00,LWC V1.00 B64,2013-04-27 16:34:00,
2013-04-27 09:39:00,52.1,49.8,30.24,SW,225,0.0,2.0,92,0.00,,,0.00,LWC V1.00 B64,2013-04-27 16:39:00,
2013-04-27 09:44:00,52.2,49.9,30.24,SW,225,0.0,2.0,92,0.00,,,0.00,LWC V1.00 B64,2013-04-27 16:44:00,
2013-04-27 09:49:00,52.4,49.8,30.24,SW,225,0.0,5.0,91,0.00,,,0.00,LWC V1.00 B64,2013-04-27 16:49:00,
2013-04-27 09:54:00,52.8,50.2,30.24,SW,225,0.0,1.0,91,0.00,,,0.00,LWC V1.00 B64,2013-04-27 16:54:00,
2013-04-27 09:59:00,53.3,50.7,30.24,SW,225,0.0,4.0,91,0.00,,,0.00,LWC V1.00 B64,2013-04-27 16:59:00,
2013-04-27 10:04:00,53.9,51.3,30.24,SW,225,1.0,1.0,91,0.00,,,0.00,LWC V1.00 B64,2013-04-27 17:04:00,
2013-04-27 10:09:00,54.6,51.4,30.24,SW,225,0.0,1.0,89,0.00,,,0.00,LWC V1.00 B64,2013-04-27 17:09:00,
2013-04-27 10:14:00,54.8,51.0,30.24,SW,225,1.0,1.0,87,0.00,,,0.00,LWC V1.00 B64,2013-04-27 17:14:00,
2013-04-27 10:19:00,55.1,51.3,30.24,SW,225,1.0,1.0,87,0.00,,,0.00,LWC V1.00 B64,2013-04-27 17:19:00,
2013-04-27 10:24:00,55.7,51.6,30.24,SW,225,0.0,1.0,86,0.00,,,0.00,LWC V1.00 B64,2013-04-27 17:24:00,
2013-04-27 10:29:00,56.2,51.4,30.24,SW,225,0.0,2.0,84,0.00,,,0.00,LWC V1.00 B64,2013-04-27 17:29:00,
2013-04-27 10:35:00,56.7,51.6,30.24,SW,229,0.0,1.0,83,0.00,,,0.00,LWC V1.00 B64,2013-04-27 17:35:00,
2013-04-27 10:40:00,57.2,52.1,30.24,WSW,238,0.0,3.0,83,0.00,,,0.00,LWC V1.00 B64,2013-04-27 17:40:00,
2013-04-27 10:45:00,57.2,51.8,30.24,West,271,1.0,4.0,82,0.00,,,0.00,LWC V1.00 B64,2013-04-27 17:45:00,
2013-04-27 10:51:00,57.2,51.8,30.24,WNW,292,2.0,5.0,82,0.00,,,0.00,LWC V1.00 B64,2013-04-27 17:51:00,
2013-04-27 10:56:00,57.6,52.5,30.23,WNW,302,2.0,4.0,83,0.00,,,0.00,LWC V1.00 B64,2013-04-27 17:56:00,
2013-04-27 11:01:00,57.7,52.2,30.23,NW,304,0.0,4.0,82,0.00,,,0.00,LWC V1.00 B64,2013-04-27 18:01:00,
2013-04-27 11:06:00,57.8,52.3,30.24,WNW,292,3.0,3.0,82,0.00,,,0.00,LWC V1.00 B64,2013-04-27 18:06:00,
2013-04-27 11:11:00,58.4,52.6,30.24,WNW,296,0.0,2.0,81,0.00,,,0.00,LWC V1.00 B64,2013-04-27 18:11:00,
2013-04-27 11:16:00,58.9,52.7,30.24,NW,313,3.0,6.0,80,0.00,,,0.00,LWC V1.00 B64,2013-04-27 18:16:00,
2013-04-27 11:21:00,58.9,52.7,30.24,NNW,344,4.0,6.0,80,0.00,,,0.00,LWC V1.00 B64,2013-04-27 18:21:00,
2013-04-27 11:26:00,59.1,52.9,30.24,NNW,330,1.0,6.0,80,0.00,,,0.00,LWC V1.00 B64,2013-04-27 18:26:00,
2013-04-27 11:31:00,59.3,52.8,30.24,NNW,338,1.0,5.0,79,0.00,,,0.00,LWC V1.00 B64,2013-04-27 18:31:00,
2013-04-27 11:36:00,59.9,53.7,30.23,NNW,332,2.0,9.0,80,0.00,,,0.00,LWC V1.00 B64,2013-04-27 18:36:00,
2013-04-27 11:41:00,59.9,53.7,30.24,NNW,332,2.0,5.0,80,0.00,,,0.00,LWC V1.00 B64,2013-04-27 18:41:00,
2013-04-27 11:46:00,60.5,54.0,30.23,NNW,348,6.0,6.0,79,0.00,,,0.00,LWC V1.00 B64,2013-04-27 18:46:00,
2013-04-27 11:51:00,60.3,53.4,30.24,NNW,346,10.0,10.0,78,0.00,,,0.00,LWC V1.00 B64,2013-04-27 18:51:00,
2013-04-27 11:56:00,60.4,54.2,30.23,NNW,338,5.0,10.0,80,0.00,,,0.00,LWC V1.00 B64,2013-04-27 18:56:00,
2013-04-27 12:01:00,60.5,54.3,30.23,NNW,345,5.0,11.0,80,0.00,,,0.00,LWC V1.00 B64,2013-04-27 19:01:00,
2013-04-27 12:06:00,60.7,54.8,30.23,North,0,6.0,9.0,81,0.00,,,0.00,LWC V1.00 B64,2013-04-27 19:06:00,
2013-04-27 12:11:00,60.5,54.3,30.23,North,355,5.0,11.0,80,0.00,,,0.00,LWC V1.00 B64,2013-04-27 19:11:00,
2013-04-27 12:16:00,60.4,54.5,30.22,North,5,6.0,11.0,81,0.00,,,0.00,LWC V1.00 B64,2013-04-27 19:16:00,
2013-04-27 12:21:00,60.3,54.8,30.23,NNW,333,5.0,13.0,82,0.00,,,0.00,LWC V1.00 B64,2013-04-27 19:21:00,
2013-04-27 12:26:00,60.0,54.5,30.22,North,0,11.0,13.0,82,0.00,,,0.00,LWC V1.00 B64,2013-04-27 19:26:00,
2013-04-27 12:31:00,59.5,54.0,30.22,NNW,345,11.0,15.0,82,0.00,,,0.00,LWC V1.00 B64,2013-04-27 19:31:00,
2013-04-27 12:37:00,59.4,54.2,30.22,NW,326,10.0,14.0,83,0.00,,,0.00,LWC V1.00 B64,2013-04-27 19:37:00,
2013-04-27 12:42:00,59.1,53.3,30.22,NNW,334,11.0,13.0,81,0.00,,,0.00,LWC V1.00 B64,2013-04-27 19:42:00,
2013-04-27 12:47:00,59.1,53.9,30.22,NNW,341,9.0,13.0,83,0.00,,,0.00,LWC V1.00 B64,2013-04-27 19:47:00,
2013-04-27 12:52:00,58.9,53.7,30.22,NNW,341,6.0,13.0,83,0.00,,,0.00,LWC V1.00 B64,2013-04-27 19:52:00,
2013-04-27 12:57:00,58.4,52.9,30.21,North,0,10.0,16.0,82,0.00,,,0.00,LWC V1.00 B64,2013-04-27 19:57:00,
2013-04-27 13:02:00,58.0,52.9,30.21,NNW,341,11.0,17.0,83,0.00,,,0.00,LWC V1.00 B64,2013-04-27 20:02:00,
2013-04-27 13:07:00,57.7,52.2,30.21,North,349,9.0,14.0,82,0.00,,,0.00,LWC V1.00 B64,2013-04-27 20:07:00,
2013-04-27 13:12:00,57.6,52.1,30.21,North,355,13.0,16.0,82,0.00,,,0.00,LWC V1.00 B64,2013-04-27 20:12:00,
2013-04-27 13:17:00,56.8,51.7,30.21,North,355,6.0,18.0,83,0.00,,,0.00,LWC V1.00 B64,2013-04-27 20:17:00,
2013-04-27 13:22:00,56.6,51.5,30.21,North,0,7.0,17.0,83,0.00,,,0.00,LWC V1.00 B64,2013-04-27 20:22:00,
2013-04-27 13:27:00,56.2,51.4,30.21,NNW,331,14.0,16.0,84,0.00,,,0.00,LWC V1.00 B64,2013-04-27 20:27:00,
2013-04-27 13:32:00,56.4,51.6,30.21,NNW,332,10.0,18.0,84,0.00,,,0.00,LWC V1.00 B64,2013-04-27 20:32:00,
2013-04-27 13:37:00,56.3,50.9,30.21,NW,323,6.0,13.0,82,0.00,,,0.00,LWC V1.00 B64,2013-04-27 20:37:00,
2013-04-27 13:42:00,56.4,51.3,30.21,NW,321,7.0,16.0,83,0.00,,,0.00,LWC V1.00 B64,2013-04-27 20:42:00,
2013-04-27 13:47:00,56.3,51.5,30.21,NNW,342,10.0,14.0,84,0.00,,,0.00,LWC V1.00 B64,2013-04-27 20:47:00,
2013-04-27 13:52:00,56.5,51.4,30.21,NNW,339,6.0,13.0,83,0.00,,,0.00,LWC V1.00 B64,2013-04-27 20:52:00,
2013-04-27 13:57:00,56.3,51.5,30.20,North,355,7.0,16.0,84,0.00,,,0.00,LWC V1.00 B64,2013-04-27 20:57:00,
2013-04-27 14:02:00,56.2,51.4,30.21,North,0,10.0,16.0,84,0.00,,,0.00,LWC V1.00 B64,2013-04-27 21:02:00,
2013-04-27 14:07:00,56.2,51.7,30.20,North,350,4.0,17.0,85,0.00,,,0.00,LWC V1.00 B64,2013-04-27 21:07:00,
2013-04-27 14:12:00,56.2,51.4,30.20,NNW,327,15.0,15.0,84,0.00,,,0.00,LWC V1.00 B64,2013-04-27 21:12:00,
2013-04-27 14:17:00,56.2,51.7,30.20,NNW,346,12.0,12.0,85,0.00,,,0.00,LWC V1.00 B64,2013-04-27 21:17:00,
2013-04-27 14:22:00,56.2,51.4,30.20,NNW,334,9.0,16.0,84,0.00,,,0.00,LWC V1.00 B64,2013-04-27 21:22:00,
2013-04-27 14:27:00,56.3,51.8,30.20,NNW,346,10.0,13.0,85,0.00,,,0.00,LWC V1.00 B64,2013-04-27 21:27:00,
2013-04-27 14:32:00,56.2,51.4,30.20,NW,322,10.0,17.0,84,0.00,,,0.00,LWC V1.00 B64,2013-04-27 21:32:00,
2013-04-27 14:37:00,55.6,51.2,30.20,North,350,15.0,15.0,85,0.00,,,0.00,LWC V1.00 B64,2013-04-27 21:37:00,
2013-04-27 14:42:00,55.4,51.0,30.20,NNW,339,10.0,19.0,85,0.00,,,0.00,LWC V1.00 B64,2013-04-27 21:42:00,
2013-04-27 14:47:00,55.5,51.7,30.20,NNE,22,9.0,14.0,87,0.00,,,0.00,LWC V1.00 B64,2013-04-27 21:47:00,
2013-04-27 14:52:00,55.5,51.4,30.20,NNE,13,6.0,15.0,86,0.00,,,0.00,LWC V1.00 B64,2013-04-27 21:52:00,
2013-04-27 14:57:00,55.7,51.3,30.20,North,0,6.0,15.0,85,0.00,,,0.00,LWC V1.00 B64,2013-04-27 21:57:00,
2013-04-27 15:02:00,55.5,51.1,30.19,NW,318,10.0,16.0,85,0.00,,,0.00,LWC V1.00 B64,2013-04-27 22:02:00,
2013-04-27 15:07:00,55.2,50.4,30.19,NNE,19,9.0,17.0,84,0.00,,,0.00,LWC V1.00 B64,2013-04-27 22:07:00,
2013-04-27 15:12:00,55.0,50.6,30.19,North,355,10.0,18.0,85,0.00,,,0.00,LWC V1.00 B64,2013-04-27 22:12:00,
2013-04-27 15:17:00,55.2,51.1,30.19,NNW,334,13.0,14.0,86,0.00,,,0.00,LWC V1.00 B64,2013-04-27 22:17:00,
2013-04-27 15:22:00,54.9,50.5,30.19,North,355,6.0,19.0,85,0.00,,,0.00,LWC V1.00 B64,2013-04-27 22:22:00,
2013-04-27 15:27:00,54.9,50.5,30.18,North,5,11.0,11.0,85,0.00,,,0.00,LWC V1.00 B64,2013-04-27 22:27:00,
2013-04-27 15:32:00,54.9,50.8,30.18,NNE,24,9.0,17.0,86,0.00,,,0.00,LWC V1.00 B64,2013-04-27 22:32:00,
2013-04-27 15:37:00,54.9,50.8,30.18,North,355,13.0,16.0,86,0.00,,,0.00,LWC V1.00 B64,2013-04-27 22:37:00,
2013-04-27 15:42:00,55.0,50.9,30.18,NNW,343,8.0,15.0,86,0.00,,,0.00,LWC V1.00 B64,2013-04-27 22:42:00,
2013-04-27 15:47:00,54.6,50.5,30.18,North,350,4.0,9.0,86,0.00,,,0.00,LWC V1.00 B64,2013-04-27 22:47:00,
2013-04-27 15:52:00,54.4,50.0,30.18,North,355,13.0,17.0,85,0.00,,,0.00,LWC V1.00 B64,2013-04-27 22:52:00,
2013-04-27 15:57:00,54.3,50.2,30.18,North,355,10.0,13.0,86,0.00,,,0.00,LWC V1.00 B64,2013-04-27 22:57:00,
2013-04-27 16:02:00,54.3,50.2,30.18,NNW,339,11.0,19.0,86,0.00,,,0.00,LWC V1.00 B64,2013-04-27 23:02:00,
2013-04-27 16:07:00,54.2,50.4,30.17,North,9,5.0,12.0,87,0.00,,,0.00,LWC V1.00 B64,2013-04-27 23:07:00,
2013-04-27 16:12:00,54.3,50.5,30.18,North,0,7.0,11.0,87,0.00,,,0.00,LWC V1.00 B64,2013-04-27 23:12:00,
2013-04-27 16:17:00,54.2,50.1,30.17,NNW,338,6.0,17.0,86,0.00,,,0.00,LWC V1.00 B64,2013-04-27 23:17:00,
2013-04-27 16:22:00,54.0,50.2,30.17,NW,325,8.0,15.0,87,0.00,,,0.00,LWC V1.00 B64,2013-04-27 23:22:00,
2013-04-27 16:27:00,54.0,50.2,30.17,North,0,5.0,13.0,87,0.00,,,0.00,LWC V1.00 B64,2013-04-27 23:27:00,
2013-04-27 16:32:00,54.3,50.2,30.17,NNW,338,13.0,14.0,86,0.00,,,0.00,LWC V1.00 B64,2013-04-27 23:32:00,
2013-04-27 16:37:00,53.7,49.9,30.17,NNW,331,5.0,14.0,87,0.00,,,0.00,LWC V1.00 B64,2013-04-27 23:37:00,
2013-04-27 16:42:00,53.6,49.8,30.16,NNW,331,3.0,12.0,87,0.00,,,0.00,LWC V1.00 B64,2013-04-27 23:42:00,
2013-04-27 16:47:00,53.5,49.7,30.16,North,0,7.0,10.0,87,0.00,,,0.00,LWC V1.00 B64,2013-04-27 23:47:00,
2013-04-27 16:52:00,53.5,50.0,30.16,NNW,336,7.0,11.0,88,0.00,,,0.00,LWC V1.00 B64,2013-04-27 23:52:00,
2013-04-27 16:57:00,53.8,50.3,30.16,North,11,5.0,10.0,88,0.00,,,0.00,LWC V1.00 B64,2013-04-27 23:57:00,
2013-04-27 17:02:00,53.6,49.8,30.16,North,350,5.0,15.0,87,0.00,,,0.00,LWC V1.00 B64,2013-04-28 00:02:00,
2013-04-27 17:07:00,53.2,49.4,30.16,NNW,342,9.0,15.0,87,0.00,,,0.00,LWC V1.00 B64,2013-04-28 00:07:00,
2013-04-27 17:12:00,53.2,49.7,30.16,North,355,4.0,10.0,88,0.00,,,0.00,LWC V1.00 B64,2013-04-28 00:12:00,
2013-04-27 17:17:00,53.3,49.8,30.16,North,350,4.0,11.0,88,0.00,,,0.00,LWC V1.00 B64,2013-04-28 00:17:00,
2013-04-27 17:22:00,53.2,49.7,30.16,North,11,12.0,13.0,88,0.00,,,0.00,LWC V1.00 B64,2013-04-28 00:22:00,
2013-04-27 17:27:00,52.8,49.3,30.16,NNW,336,5.0,14.0,88,0.00,,,0.00,LWC V1.00 B64,2013-04-28 00:27:00,
2013-04-27 17:32:00,52.8,49.6,30.16,NNW,327,10.0,12.0,89,0.00,,,0.00,LWC V1.00 B64,2013-04-28 00:32:00,
2013-04-27 17:37:00,52.6,49.5,30.16,North,355,8.0,12.0,89,0.00,,,0.00,LWC V1.00 B64,2013-04-28 00:37:00,
2013-04-27 17:42:00,52.4,49.3,30.15,North,350,7.0,14.0,89,0.00,,,0.00,LWC V1.00 B64,2013-04-28 00:42:00,
2013-04-27 17:47:00,52.8,49.9,30.15,North,355,13.0,14.0,90,0.00,,,0.00,LWC V1.00 B64,2013-04-28 00:47:00,
2013-04-27 17:52:00,52.3,49.2,30.15,NNW,340,4.0,11.0,89,0.00,,,0.00,LWC V1.00 B64,2013-04-28 00:52:00,
2013-04-27 17:57:00,52.1,49.0,30.15,North,0,4.0,10.0,89,0.00,,,0.00,LWC V1.00 B64,2013-04-28 00:57:00,
2013-04-27 18:02:00,52.0,49.2,30.15,North,355,6.0,10.0,90,0.00,,,0.00,LWC V1.00 B64,2013-04-28 01:02:00,
2013-04-27 18:07:00,51.7,48.9,30.15,NNW,336,4.0,14.0,90,0.00,,,0.00,LWC V1.00 B64,2013-04-28 01:07:00,
2013-04-27 18:12:00,51.5,48.7,30.15,NNW,348,4.0,12.0,90,0.00,,,0.00,LWC V1.00 B64,2013-04-28 01:12:00,
2013-04-27 18:17:00,51.3,48.8,30.15,North,5,7.0,13.0,91,0.00,,,0.00,LWC V1.00 B64,2013-04-28 01:17:00,
2013-04-27 18:22:00,51.1,48.6,30.15,North,355,2.0,10.0,91,0.00,,,0.00,LWC V1.00 B64,2013-04-28 01:22:00,
2013-04-27 18:27:00,50.8,48.3,30.14,NNW,346,4.0,10.0,91,0.00,,,0.00,LWC V1.00 B64,2013-04-28 01:27:00,
2013-04-27 18:32:00,50.7,48.2,30.14,NNW,347,6.0,11.0,91,0.00,,,0.00,LWC V1.00 B64,2013-04-28 01:32:00,
2013-04-27 18:37:00,50.6,48.1,30.14,North,350,4.0,14.0,91,0.00,,,0.00,LWC V1.00 B64,2013-04-28 01:37:00,
2013-04-27 18:42:00,50.5,48.0,30.14,North,0,4.0,11.0,91,0.00,,,0.00,LWC V1.00 B64,2013-04-28 01:42:00,
2013-04-27 18:47:00,50.6,48.1,30.14,NW,315,3.0,9.0,91,0.00,,,0.00,LWC V1.00 B64,2013-04-28 01:47:00,
2013-04-27 18:52:00,50.3,47.8,30.14,North,0,10.0,12.0,91,0.00,,,0.00,LWC V1.00 B64,2013-04-28 01:52:00,
2013-04-27 18:57:00,50.3,48.1,30.13,NNW,341,4.0,12.0,92,0.00,,,0.00,LWC V1.00 B64,2013-04-28 01:57:00,
2013-04-27 19:02:00,50.4,47.9,30.13,North,351,5.0,11.0,91,0.00,,,0.00,LWC V1.00 B64,2013-04-28 02:02:00,
2013-04-27 19:07:00,50.6,48.1,30.13,NNW,329,5.0,10.0,91,0.00,,,0.00,LWC V1.00 B64,2013-04-28 02:07:00,
2013-04-27 19:12:00,50.4,47.9,30.13,NNW,340,4.0,11.0,91,0.00,,,0.00,LWC V1.00 B64,2013-04-28 02:12:00,
2013-04-27 19:17:00,50.4,48.2,30.13,NNW,346,3.0,9.0,92,0.00,,,0.00,LWC V1.00 B64,2013-04-28 02:17:00,
2013-04-27 19:22:00,50.3,48.1,30.13,North,350,3.0,5.0,92,0.00,,,0.00,LWC V1.00 B64,2013-04-28 02:22:00,
2013-04-27 19:27:00,50.1,47.6,30.13,NNW,343,7.0,11.0,91,0.00,,,0.00,LWC V1.00 B64,2013-04-28 02:27:00,
2013-04-27 19:32:00,50.1,47.9,30.12,NNW,342,10.0,12.0,92,0.00,,,0.00,LWC V1.00 B64,2013-04-28 02:32:00,
2013-04-27 19:37:00,49.9,47.7,30.12,NNW,327,3.0,11.0,92,0.00,,,0.00,LWC V1.00 B64,2013-04-28 02:37:00,
2013-04-27 19:42:00,49.8,47.6,30.12,NNE,16,2.0,7.0,92,0.00,,,0.00,LWC V1.00 B64,2013-04-28 02:42:00,
2013-04-27 19:47:00,49.7,47.5,30.12,NNW,348,0.0,10.0,92,0.00,,,0.00,LWC V1.00 B64,2013-04-28 02:47:00,
2013-04-27 19:52:00,49.8,47.6,30.12,NNW,342,5.0,9.0,92,0.00,,,0.00,LWC V1.00 B64,2013-04-28 02:52:00,
2013-04-27 19:57:00,49.8,47.6,30.12,North,350,6.0,7.0,92,0.00,,,0.00,LWC V1.00 B64,2013-04-28 02:57:00,
2013-04-27 20:02:00,49.8,47.6,30.12,NNW,327,2.0,10.0,92,0.00,,,0.00,LWC V1.00 B64,2013-04-28 03:02:00,
2013-04-27 20:07:00,49.8,47.6,30.11,NNW,345,4.0,5.0,92,0.00,,,0.00,LWC V1.00 B64,2013-04-28 03:07:00,
2013-04-27 20:12:00,49.8,47.6,30.12,NNE,15,5.0,7.0,92,0.00,,,0.00,LWC V1.00 B64,2013-04-28 03:12:00,
2013-04-27 20:17:00,49.7,47.5,30.11,NNW,332,7.0,9.0,92,0.00,,,0.00,LWC V1.00 B64,2013-04-28 03:17:00,
2013-04-27 20:22:00,49.6,47.4,30.11,NNW,348,3.0,6.0,92,0.00,,,0.00,LWC V1.00 B64,2013-04-28 03:22:00,
2013-04-27 20:27:00,49.6,47.4,30.11,North,349,3.0,7.0,92,0.00,,,0.00,LWC V1.00 B64,2013-04-28 03:27:00,
2013-04-27 20:32:00,49.6,47.4,30.11,NNW,336,2.0,9.0,92,0.00,,,0.00,LWC V1.00 B64,2013-04-28 03:32:00,
2013-04-27 20:37:00,49.6,47.4,30.11,NNW,331,2.0,12.0,92,0.00,,,0.00,LWC V1.00 B64,2013-04-28 03:37:00,
2013-04-27 20:42:00,49.6,47.4,30.11,North,0,5.0,10.0,92,0.00,,,0.00,LWC V1.00 B64,2013-04-28 03:42:00,
2013-04-27 20:47:00,49.6,47.4,30.11,NNW,334,5.0,11.0,92,0.00,,,0.00,LWC V1.00 B64,2013-04-28 03:47:00,
2013-04-27 20:52:00,49.6,47.4,30.11,North,355,3.0,13.0,92,0.00,,,0.00,LWC V1.00 B64,2013-04-28 03:52:00,
2013-04-27 20:57:00,49.6,47.4,30.11,North,0,5.0,8.0,92,0.00,,,0.00,LWC V1.00 B64,2013-04-28 03:57:00,
2013-04-27 21:01:00,49.6,47.4,30.11,NW,325,4.0,7.0,92,0.00,,,0.00,LWC V1.00 B64,2013-04-28 04:01:00,
2013-04-27 21:02:00,49.6,47.4,30.11,North,5,5.0,7.0,92,0.00,,,0.00,LWC V1.00 B64,2013-04-28 04:02:00,
2013-04-27 21:03:00,49.6,47.4,30.11,North,9,2.0,7.0,92,0.00,,,0.00,LWC V1.00 B64,2013-04-28 04:03:00,
2013-04-27 21:04:00,49.6,47.4,30.11,North,5,3.0,4.0,92,0.00,,,0.00,LWC V1.00 B64,2013-04-28 04:04:00,
2013-04-27 21:09:00,49.6,47.4,30.11,NNW,344,5.0,9.0,92,0.00,,,0.00,LWC V1.00 B64,2013-04-28 04:09:00,
2013-04-27 21:14:00,49.6,47.4,30.11,North,350,1.0,9.0,92,0.00,,,0.00,LWC V1.00 B64,2013-04-28 04:14:00,
2013-04-27 21:19:00,49.6,47.4,30.12,NNW,343,4.0,10.0,92,0.00,,,0.00,LWC V1.00 B64,2013-04-28 04:19:00,
2013-04-27 21:24:00,49.6,47.4,30.12,NNW,340,3.0,6.0,92,0.00,,,0.00,LWC V1.00 B64,2013-04-28 04:24:00,
2013-04-27 21:29:00,49.6,47.4,30.12,North,355,6.0,10.0,92,0.00,,,0.00,LWC V1.00 B64,2013-04-28 04:29:00,
2013-04-27 21:34:00,49.7,47.5,30.12,NNW,346,2.0,5.0,92,0.00,,,0.00,LWC V1.00 B64,2013-04-28 04:34:00,
2013-04-27 21:39:00,49.7,47.5,30.12,NNE,19,1.0,5.0,92,0.00,,,0.00,LWC V1.00 B64,2013-04-28 04:39:00,
2013-04-27 21:44:00,49.7,47.5,30.12,NNW,337,1.0,10.0,92,0.00,,,0.00,LWC V1.00 B64,2013-04-28 04:44:00,
2013-04-27 21:49:00,49.7,47.5,30.12,NNW,333,3.0,5.0,92,0.00,,,0.00,LWC V1.00 B64,2013-04-28 04:49:00,
2013-04-27 21:54:00,49.6,47.4,30.12,North,9,3.0,6.0,92,0.00,,,0.00,LWC V1.00 B64,2013-04-28 04:54:00,
2013-04-27 21:59:00,49.7,47.5,30.12,NNW,345,2.0,5.0,92,0.00,,,0.00,LWC V1.00 B64,2013-04-28 04:59:00,
2013-04-27 22:04:00,49.7,47.5,30.12,NNW,342,1.0,3.0,92,0.00,,,0.00,LWC V1.00 B64,2013-04-28 05:04:00,
2013-04-27 22:09:00,49.7,47.5,30.12,NNW,341,2.0,2.0,92,0.00,,,0.00,LWC V1.00 B64,2013-04-28 05:09:00,
2013-04-27 22:14:00,49.7,47.5,30.12,NNW,342,1.0,3.0,92,0.00,,,0.00,LWC V1.00 B64,2013-04-28 05:14:00,
2013-04-27 22:19:00,49.7,47.5,30.12,NW,326,0.0,1.0,92,0.00,,,0.00,LWC V1.00 B64,2013-04-28 05:19:00,
2013-04-27 22:24:00,49.7,47.5,30.11,NNW,327,2.0,3.0,92,0.00,,,0.00,LWC V1.00 B64,2013-04-28 05:24:00,
2013-04-27 22:29:00,49.7,47.5,30.12,NNW,327,0.0,1.0,92,0.00,,,0.00,LWC V1.00 B64,2013-04-28 05:29:00,
2013-04-27 22:34:00,49.7,47.5,30.12,NNW,329,0.0,1.0,92,0.00,,,0.00,LWC V1.00 B64,2013-04-28 05:34:00,
2013-04-27 22:39:00,49.6,47.4,30.11,NNW,331,4.0,4.0,92,0.00,,,0.00,LWC V1.00 B64,2013-04-28 05:39:00,
2013-04-27 22:44:00,49.6,47.4,30.11,NNW,338,0.0,1.0,92,0.00,,,0.00,LWC V1.00 B64,2013-04-28 05:44:00,
2013-04-27 22:49:00,49.6,47.4,30.11,NNW,338,1.0,3.0,92,0.00,,,0.00,LWC V1.00 B64,2013-04-28 05:49:00,
2013-04-27 22:54:00,49.5,47.3,30.11,NNW,339,0.0,1.0,92,0.00,,,0.00,LWC V1.00 B64,2013-04-28 05:54:00,
2013-04-27 22:59:00,49.6,47.4,30.11,NNW,339,0.0,1.0,92,0.00,,,0.00,LWC V1.00 B64,2013-04-28 05:59:00,
2013-04-27 23:04:00,49.6,47.4,30.11,NNW,339,0.0,0.0,92,0.00,,,0.00,LWC V1.00 B64,2013-04-28 06:04:00,
2013-04-27 23:09:00,49.6,47.4,30.11,NNW,339,0.0,1.0,92,0.00,,,0.00,LWC V1.00 B64,2013-04-28 06:09:00,
2013-04-27 23:14:00,49.6,47.4,30.11,NNW,339,0.0,0.0,92,0.00,,,0.00,LWC V1.00 B64,2013-04-28 06:14:00,
2013-04-27 23:19:00,49.6,47.4,30.10,NNW,338,0.0,0.0,92,0.00,,,0.00,LWC V1.00 B64,2013-04-28 06:19:00,
2013-04-27 23:24:00,49.5,47.3,30.10,NNW,338,0.0,0.0,92,0.00,,,0.00,LWC V1.00 B64,2013-04-28 06:24:00,
2013-04-27 23:29:00,49.5,47.3,30.10,NNW,339,1.0,2.0,92,0.00,,,0.00,LWC V1.00 B64,2013-04-28 06:29:00,
2013-04-27 23:34:00,49.4,47.2,30.10,NNW,339,0.0,2.0,92,0.00,,,0.00,LWC V1.00 B64,2013-04-28 06:34:00,
2013-04-27 23:39:00,49.4,47.2,30.10,NNW,339,0.0,2.0,92,0.00,,,0.00,LWC V1.00 B64,2013-04-28 06:39:00,
2013-04-27 23:44:00,49.4,47.2,30.10,NNW,338,0.0,0.0,92,0.00,,,0.00,LWC V1.00 B64,2013-04-28 06:44:00,
2013-04-27 23:49:00,49.4,47.2,30.10,NNW,339,0.0,0.0,92,0.00,,,0.00,LWC V1.00 B64,2013-04-28 06:49:00,
2013-04-27 23:54:00,49.4,47.2,30.09,NNW,338,0.0,1.0,92,0.00,,,0.00,LWC V1.00 B64,2013-04-28 06:54:00,
2013-04-27 23:59:00,49.3,47.1,30.09,NNW,339,0.0,0.0,92,0.00,,,0.00,LWC V1.00 B64,2013-04-28 06:59:00,